createdAt,value
2023-05-25T00:01:00.642Z,407.00
2023-05-25T00:01:47.276Z,409.00
2023-05-25T00:02:46.324Z,412.00
2023-05-25T00:03:46.374Z,410.00
2023-05-25T00:04:46.342Z,409.00
2023-05-25T00:05:46.264Z,407.00
2023-05-25T00:06:46.215Z,407.00
2023-05-25T00:07:46.220Z,405.00
2023-05-25T00:08:46.222Z,405.00
2023-05-25T00:09:46.234Z,406.00
2023-05-25T00:10:46.261Z,403.00
2023-05-25T00:11:46.299Z,402.00
2023-05-25T00:12:46.318Z,402.00
2023-05-25T00:13:46.308Z,402.00
2023-05-25T00:14:46.374Z,403.00
2023-05-25T00:15:46.445Z,403.00
2023-05-25T00:16:46.548Z,403.00
2023-05-25T00:17:46.754Z,402.00
2023-05-25T00:18:46.607Z,403.00
2023-05-25T00:19:46.657Z,403.00
2023-05-25T00:20:46.715Z,404.00
2023-05-25T00:21:46.781Z,407.00
2023-05-25T00:22:46.843Z,408.00
2023-05-25T00:23:46.894Z,411.00
2023-05-25T00:24:46.958Z,409.00
2023-05-25T00:25:47.155Z,410.00
2023-05-25T00:26:47.043Z,409.00
2023-05-25T00:27:47.175Z,410.00
2023-05-25T00:28:47.255Z,410.00
2023-05-25T00:29:47.287Z,410.00
2023-05-25T00:30:47.304Z,409.00
2023-05-25T00:31:47.365Z,409.00
2023-05-25T00:32:47.460Z,410.00
2023-05-25T00:33:47.523Z,409.00
2023-05-25T00:34:47.594Z,407.00
2023-05-25T00:35:47.632Z,406.00
2023-05-25T00:36:47.708Z,405.00
2023-05-25T00:37:48.447Z,406.00
2023-05-25T00:38:47.768Z,406.00
2023-05-25T00:39:47.843Z,404.00
2023-05-25T00:40:47.751Z,403.00
2023-05-25T00:41:47.840Z,405.00
2023-05-25T00:42:47.840Z,406.00
2023-05-25T00:43:47.832Z,405.00
2023-05-25T00:44:47.904Z,407.00
2023-05-25T00:45:47.924Z,408.00
2023-05-25T00:46:47.930Z,405.00
2023-05-25T00:47:48.488Z,405.00
2023-05-25T00:48:47.983Z,404.00
2023-05-25T00:49:48.060Z,405.00
2023-05-25T00:50:48.010Z,407.00
2023-05-25T00:51:48.070Z,408.00
2023-05-25T00:52:48.107Z,407.00
2023-05-25T00:53:48.184Z,406.00
2023-05-25T00:54:48.371Z,406.00
2023-05-25T00:55:48.284Z,407.00
2023-05-25T00:56:48.413Z,408.00
2023-05-25T00:57:48.354Z,408.00
2023-05-25T00:58:48.549Z,407.00
2023-05-25T00:59:48.472Z,408.00
2023-05-25T01:00:48.528Z,409.00
2023-05-25T01:01:48.614Z,409.00
2023-05-25T01:02:48.683Z,411.00
2023-05-25T01:03:48.747Z,412.00
2023-05-25T01:04:48.717Z,412.00
2023-05-25T01:05:48.789Z,411.00
2023-05-25T01:06:48.821Z,409.00
2023-05-25T01:07:48.895Z,409.00
2023-05-25T01:08:49.001Z,407.00
2023-05-25T01:09:49.053Z,407.00
2023-05-25T01:10:49.076Z,406.00
2023-05-25T01:11:49.086Z,406.00
2023-05-25T01:12:49.168Z,407.00
2023-05-25T01:13:49.231Z,408.00
2023-05-25T01:14:49.236Z,407.00
2023-05-25T01:15:49.258Z,407.00
2023-05-25T01:16:49.387Z,404.00
2023-05-25T01:17:50.052Z,405.00
2023-05-25T01:18:49.492Z,405.00
2023-05-25T01:20:01.581Z,403.00
2023-05-25T01:20:50.508Z,401.00
2023-05-25T01:21:49.460Z,402.00
2023-05-25T01:22:49.448Z,403.00
2023-05-25T01:23:49.468Z,404.00
2023-05-25T01:24:49.402Z,403.00
2023-05-25T01:25:49.415Z,402.00
2023-05-25T01:26:49.424Z,400.00
2023-05-25T01:27:49.487Z,400.00
2023-05-25T01:28:49.532Z,400.00
2023-05-25T01:29:49.602Z,400.00
2023-05-25T01:30:49.605Z,401.00
2023-05-25T01:31:49.629Z,399.00
2023-05-25T01:32:49.611Z,400.00
2023-05-25T01:33:49.627Z,399.00
2023-05-25T01:34:49.637Z,401.00
2023-05-25T01:35:49.591Z,401.00
2023-05-25T01:36:49.646Z,399.00
2023-05-25T01:37:49.656Z,400.00
2023-05-25T01:38:49.656Z,398.00
2023-05-25T01:39:49.711Z,397.00
2023-05-25T01:40:49.725Z,398.00
2023-05-25T01:41:49.779Z,398.00
2023-05-25T01:42:49.790Z,398.00
2023-05-25T01:43:49.790Z,400.00
2023-05-25T01:44:49.792Z,402.00
2023-05-25T01:45:49.852Z,402.00
2023-05-25T01:46:49.872Z,404.00
2023-05-25T01:47:49.915Z,406.00
2023-05-25T01:48:49.853Z,404.00
2023-05-25T01:49:49.966Z,403.00
2023-05-25T01:50:49.966Z,407.00
2023-05-25T01:51:50.020Z,406.00
2023-05-25T01:52:50.007Z,409.00
2023-05-25T01:53:50.061Z,408.00
2023-05-25T01:54:50.093Z,407.00
2023-05-25T01:55:50.091Z,409.00
2023-05-25T01:56:50.211Z,411.00
2023-05-25T01:57:50.160Z,414.00
2023-05-25T01:58:50.210Z,411.00
2023-05-25T01:59:50.223Z,412.00
2023-05-25T02:00:50.266Z,411.00
2023-05-25T02:01:52.954Z,409.00
2023-05-25T02:02:50.285Z,409.00
2023-05-25T02:03:50.317Z,409.00
2023-05-25T02:04:50.253Z,409.00
2023-05-25T02:05:50.261Z,410.00
2023-05-25T02:06:50.203Z,411.00
2023-05-25T02:07:50.197Z,410.00
2023-05-25T02:08:50.186Z,412.00
2023-05-25T02:09:50.174Z,412.00
2023-05-25T02:10:50.182Z,411.00
2023-05-25T02:11:50.148Z,409.00
2023-05-25T02:12:50.978Z,409.00
2023-05-25T02:13:50.203Z,411.00
2023-05-25T02:14:50.186Z,412.00
2023-05-25T02:15:50.226Z,413.00
2023-05-25T02:16:50.148Z,412.00
2023-05-25T02:17:50.156Z,411.00
2023-05-25T02:18:50.139Z,410.00
2023-05-25T02:19:50.637Z,408.00
2023-05-25T02:20:50.109Z,410.00
2023-05-25T02:21:50.124Z,411.00
2023-05-25T02:22:50.122Z,411.00
2023-05-25T02:23:50.084Z,411.00
2023-05-25T02:24:50.087Z,410.00
2023-05-25T02:25:50.087Z,408.00
2023-05-25T02:26:50.087Z,407.00
2023-05-25T02:27:50.045Z,408.00
2023-05-25T02:28:50.085Z,409.00
2023-05-25T02:29:50.040Z,409.00
2023-05-25T02:30:50.028Z,408.00
2023-05-25T02:31:50.158Z,410.00
2023-05-25T02:32:50.071Z,411.00
2023-05-25T02:33:50.070Z,413.00
2023-05-25T02:34:50.049Z,413.00
2023-05-25T02:35:50.024Z,411.00
2023-05-25T02:36:50.006Z,411.00
2023-05-25T02:37:51.154Z,409.00
2023-05-25T02:38:50.019Z,409.00
2023-05-25T02:39:49.992Z,407.00
2023-05-25T02:40:49.979Z,407.00
2023-05-25T02:41:50.002Z,409.00
2023-05-25T02:42:49.973Z,408.00
2023-05-25T02:43:49.965Z,408.00
2023-05-25T02:44:49.950Z,409.00
2023-05-25T02:45:49.935Z,410.00
2023-05-25T02:46:49.957Z,411.00
2023-05-25T02:47:49.934Z,409.00
2023-05-25T02:48:49.889Z,408.00
2023-05-25T02:49:49.899Z,407.00
2023-05-25T02:50:49.897Z,406.00
2023-05-25T02:51:49.902Z,406.00
2023-05-25T02:52:49.868Z,406.00
2023-05-25T02:53:49.863Z,408.00
2023-05-25T02:54:49.884Z,407.00
2023-05-25T02:55:49.885Z,406.00
2023-05-25T02:56:49.825Z,408.00
2023-05-25T02:57:49.811Z,408.00
2023-05-25T02:58:49.853Z,406.00
2023-05-25T02:59:49.822Z,405.00
2023-05-25T03:00:49.826Z,404.00
2023-05-25T03:01:49.811Z,403.00
2023-05-25T03:02:49.915Z,401.00
2023-05-25T03:03:49.820Z,401.00
2023-05-25T03:04:49.857Z,400.00
2023-05-25T03:05:49.802Z,399.00
2023-05-25T03:06:49.793Z,401.00
2023-05-25T03:07:49.851Z,403.00
2023-05-25T03:08:49.814Z,405.00
2023-05-25T03:09:49.925Z,403.00
2023-05-25T03:10:49.922Z,405.00
2023-05-25T03:11:49.942Z,404.00
2023-05-25T03:12:49.954Z,404.00
2023-05-25T03:13:50.004Z,402.00
2023-05-25T03:14:50.020Z,401.00
2023-05-25T03:15:50.030Z,401.00
2023-05-25T03:16:53.478Z,401.00
2023-05-25T03:17:50.108Z,402.00
2023-05-25T03:18:50.009Z,402.00
2023-05-25T03:19:50.009Z,402.00
2023-05-25T03:20:50.002Z,402.00
2023-05-25T03:21:49.978Z,401.00
2023-05-25T03:22:50.120Z,400.00
2023-05-25T03:23:49.996Z,397.00
2023-05-25T03:24:49.983Z,396.00
2023-05-25T03:25:50.010Z,395.00
2023-05-25T03:26:49.980Z,394.00
2023-05-25T03:27:49.933Z,396.00
2023-05-25T03:28:49.948Z,398.00
2023-05-25T03:29:49.950Z,400.00
2023-05-25T03:30:50.024Z,397.00
2023-05-25T03:31:49.998Z,399.00
2023-05-25T03:32:49.936Z,402.00
2023-05-25T03:33:49.920Z,403.00
2023-05-25T03:34:49.890Z,404.00
2023-05-25T03:35:49.906Z,404.00
2023-05-25T03:36:49.910Z,405.00
2023-05-25T03:37:49.914Z,404.00
2023-05-25T03:38:49.879Z,406.00
2023-05-25T03:39:49.893Z,406.00
2023-05-25T03:40:49.877Z,405.00
2023-05-25T03:41:49.891Z,404.00
2023-05-25T03:42:49.836Z,406.00
2023-05-25T03:43:49.830Z,407.00
2023-05-25T03:44:49.856Z,407.00
2023-05-25T03:45:49.912Z,404.00
2023-05-25T03:46:49.818Z,404.00
2023-05-25T03:47:49.887Z,406.00
2023-05-25T03:48:49.795Z,405.00
2023-05-25T03:49:49.802Z,406.00
2023-05-25T03:50:49.785Z,407.00
2023-05-25T03:51:49.776Z,404.00
2023-05-25T03:52:49.760Z,404.00
2023-05-25T03:53:49.762Z,404.00
2023-05-25T03:54:49.775Z,401.00
2023-05-25T03:55:49.738Z,400.00
2023-05-25T03:56:49.725Z,401.00
2023-05-25T03:57:49.758Z,403.00
2023-05-25T03:58:49.733Z,402.00
2023-05-25T03:59:49.786Z,403.00
2023-05-25T04:00:49.718Z,402.00
2023-05-25T04:01:49.722Z,400.00
2023-05-25T04:02:49.792Z,400.00
2023-05-25T04:03:49.811Z,401.00
2023-05-25T04:04:49.815Z,402.00
2023-05-25T04:05:49.670Z,402.00
2023-05-25T04:06:49.697Z,403.00
2023-05-25T04:07:49.660Z,405.00
2023-05-25T04:08:49.674Z,405.00
2023-05-25T04:09:49.665Z,407.00
2023-05-25T04:10:49.651Z,414.00
2023-05-25T04:11:49.675Z,415.00
2023-05-25T04:12:49.610Z,415.00
2023-05-25T04:13:49.640Z,417.00
2023-05-25T04:14:49.703Z,414.00
2023-05-25T04:15:49.705Z,415.00
2023-05-25T04:16:49.825Z,415.00
2023-05-25T04:17:49.765Z,414.00
2023-05-25T04:18:49.749Z,417.00
2023-05-25T04:19:49.734Z,422.00
2023-05-25T04:20:49.797Z,424.00
2023-05-25T04:21:49.779Z,423.00
2023-05-25T04:22:49.862Z,422.00
2023-05-25T04:23:50.128Z,422.00
2023-05-25T04:24:49.828Z,420.00
2023-05-25T04:25:49.787Z,416.00
2023-05-25T04:26:49.834Z,416.00
2023-05-25T04:27:49.837Z,418.00
2023-05-25T04:28:49.858Z,421.00
2023-05-25T04:29:49.825Z,424.00
2023-05-25T04:30:49.823Z,422.00
2023-05-25T04:31:49.930Z,420.00
2023-05-25T04:32:49.977Z,419.00
2023-05-25T04:33:49.879Z,421.00
2023-05-25T04:34:49.948Z,422.00
2023-05-25T04:35:49.956Z,424.00
2023-05-25T04:36:50.024Z,423.00
2023-05-25T04:37:50.018Z,422.00
2023-05-25T04:38:50.088Z,419.00
2023-05-25T04:39:50.049Z,419.00
2023-05-25T04:40:50.133Z,417.00
2023-05-25T04:41:50.143Z,415.00
2023-05-25T04:42:50.231Z,415.00
2023-05-25T04:44:06.572Z,415.00
2023-05-25T04:44:51.255Z,414.00
2023-05-25T04:45:50.290Z,414.00
2023-05-25T04:46:50.241Z,415.00
2023-05-25T04:47:50.265Z,415.00
2023-05-25T04:48:50.248Z,415.00
2023-05-25T04:49:50.252Z,415.00
2023-05-25T04:50:50.230Z,415.00
2023-05-25T04:51:50.214Z,415.00
2023-05-25T04:52:50.223Z,413.00
2023-05-25T04:53:50.191Z,411.00
2023-05-25T04:54:50.306Z,409.00
2023-05-25T04:55:50.242Z,408.00
2023-05-25T04:56:50.336Z,409.00
2023-05-25T04:57:50.301Z,410.00
2023-05-25T04:58:50.356Z,408.00
2023-05-25T04:59:50.369Z,412.00
2023-05-25T05:00:52.565Z,412.00
2023-05-25T05:01:50.406Z,407.00
2023-05-25T05:02:51.177Z,401.00
2023-05-25T05:03:50.437Z,411.00
2023-05-25T05:04:50.429Z,412.00
2023-05-25T05:05:50.458Z,410.00
2023-05-25T05:06:50.622Z,413.00
2023-05-25T05:07:51.596Z,414.00
2023-05-25T05:08:50.598Z,411.00
2023-05-25T05:09:50.642Z,412.00
2023-05-25T05:10:50.696Z,413.00
2023-05-25T05:11:50.776Z,412.00
2023-05-25T05:12:50.846Z,408.00
2023-05-25T05:13:50.790Z,407.00
2023-05-25T05:14:50.885Z,412.00
2023-05-25T05:15:50.943Z,413.00
2023-05-25T05:16:50.992Z,417.00
2023-05-25T05:17:51.135Z,419.00
2023-05-25T05:18:51.060Z,416.00
2023-05-25T05:19:51.110Z,414.00
2023-05-25T05:20:51.164Z,411.00
2023-05-25T05:21:51.153Z,417.00
2023-05-25T05:22:51.171Z,417.00
2023-05-25T05:23:51.183Z,415.00
2023-05-25T05:24:52.080Z,414.00
2023-05-25T05:25:51.227Z,414.00
2023-05-25T05:26:58.186Z,415.00
2023-05-25T05:27:52.192Z,414.00
2023-05-25T05:28:51.203Z,416.00
2023-05-25T05:29:51.183Z,417.00
2023-05-25T05:30:51.210Z,417.00
2023-05-25T05:31:51.276Z,427.00
2023-05-25T05:32:51.206Z,480.00
2023-05-25T05:33:51.205Z,465.00
2023-05-25T05:34:51.121Z,459.00
2023-05-25T05:35:51.168Z,465.00
2023-05-25T05:36:58.170Z,479.00
2023-05-25T05:37:52.131Z,543.00
2023-05-25T05:38:51.176Z,500.00
2023-05-25T05:39:51.161Z,500.00
2023-05-25T05:40:51.172Z,499.00
2023-05-25T05:41:51.114Z,500.00
2023-05-25T05:42:51.077Z,506.00
2023-05-25T05:43:51.109Z,517.00
2023-05-25T05:44:51.062Z,513.00
2023-05-25T05:45:51.043Z,519.00
2023-05-25T05:46:51.166Z,525.00
2023-05-25T05:47:51.143Z,534.00
2023-05-25T05:48:51.102Z,575.00
2023-05-25T05:49:51.175Z,578.00
2023-05-25T05:50:51.032Z,579.00
2023-05-25T05:51:51.119Z,583.00
2023-05-25T05:52:51.047Z,585.00
2023-05-25T05:53:51.097Z,589.00
2023-05-25T05:54:51.057Z,592.00
2023-05-25T05:55:52.974Z,595.00
2023-05-25T05:56:51.121Z,598.00
2023-05-25T05:57:51.089Z,608.00
2023-05-25T05:58:50.981Z,618.00
2023-05-25T05:59:50.991Z,627.00
2023-05-25T06:00:51.000Z,630.00
2023-05-25T06:01:51.067Z,635.00
2023-05-25T06:02:51.111Z,640.00
2023-05-25T06:03:50.961Z,648.00
2023-05-25T06:04:51.056Z,656.00
2023-05-25T06:05:50.970Z,660.00
2023-05-25T06:06:50.978Z,661.00
2023-05-25T06:07:51.006Z,662.00
2023-05-25T06:08:51.009Z,664.00
2023-05-25T06:09:51.108Z,670.00
2023-05-25T06:10:50.934Z,676.00
2023-05-25T06:11:50.922Z,685.00
2023-05-25T06:12:51.852Z,694.00
2023-05-25T06:13:50.872Z,698.00
2023-05-25T06:14:51.017Z,700.00
2023-05-25T06:15:50.851Z,707.00
2023-05-25T06:16:51.088Z,712.00
2023-05-25T06:17:50.897Z,717.00
2023-05-25T06:18:50.882Z,721.00
2023-05-25T06:19:51.241Z,726.00
2023-05-25T06:20:50.905Z,730.00
2023-05-25T06:21:50.846Z,734.00
2023-05-25T06:22:50.842Z,740.00
2023-05-25T06:23:50.803Z,746.00
2023-05-25T06:24:50.798Z,750.00
2023-05-25T06:25:50.863Z,750.00
2023-05-25T06:26:50.824Z,752.00
2023-05-25T06:27:50.799Z,753.00
2023-05-25T06:28:50.836Z,755.00
2023-05-25T06:29:50.851Z,762.00
2023-05-25T06:30:50.768Z,763.00
2023-05-25T06:31:50.811Z,762.00
2023-05-25T06:32:50.804Z,762.00
2023-05-25T06:33:50.750Z,768.00
2023-05-25T06:34:50.792Z,773.00
2023-05-25T06:35:51.021Z,807.00
2023-05-25T06:36:50.754Z,806.00
2023-05-25T06:37:50.705Z,810.00
2023-05-25T06:38:50.697Z,757.00
2023-05-25T06:39:50.770Z,742.00
2023-05-25T06:40:50.715Z,781.00
2023-05-25T06:41:50.710Z,755.00
2023-05-25T06:42:50.682Z,752.00
2023-05-25T06:43:50.699Z,749.00
2023-05-25T06:44:50.864Z,747.00
2023-05-25T06:45:50.975Z,780.00
2023-05-25T06:46:50.668Z,802.00
2023-05-25T06:47:50.979Z,804.00
2023-05-25T06:48:50.650Z,802.00
2023-05-25T06:49:50.683Z,800.00
2023-05-25T06:50:50.669Z,800.00
2023-05-25T06:51:50.643Z,804.00
2023-05-25T06:52:50.658Z,812.00
2023-05-25T06:53:50.615Z,820.00
2023-05-25T06:54:50.581Z,822.00
2023-05-25T06:55:50.590Z,818.00
2023-05-25T06:56:50.588Z,815.00
2023-05-25T06:57:50.643Z,773.00
2023-05-25T06:58:50.616Z,796.00
2023-05-25T06:59:50.606Z,796.00
2023-05-25T07:00:50.635Z,801.00
2023-05-25T07:01:50.604Z,796.00
2023-05-25T07:02:50.568Z,792.00
2023-05-25T07:03:50.543Z,796.00
2023-05-25T07:04:50.602Z,792.00
2023-05-25T07:05:50.586Z,782.00
2023-05-25T07:06:50.548Z,774.00
2023-05-25T07:07:50.603Z,764.00
2023-05-25T07:08:50.490Z,763.00
2023-05-25T07:09:50.515Z,772.00
2023-05-25T07:10:50.735Z,779.00
2023-05-25T07:11:50.507Z,781.00
2023-05-25T07:12:50.658Z,771.00
2023-05-25T07:13:50.481Z,764.00
2023-05-25T07:14:51.302Z,758.00
2023-05-25T07:15:50.548Z,742.00
2023-05-25T07:16:50.459Z,740.00
2023-05-25T07:17:50.571Z,735.00
2023-05-25T07:18:50.402Z,733.00
2023-05-25T07:19:50.609Z,736.00
2023-05-25T07:20:51.107Z,742.00
2023-05-25T07:21:50.419Z,754.00
2023-05-25T07:22:50.703Z,757.00
2023-05-25T07:23:50.516Z,754.00
2023-05-25T07:24:50.396Z,751.00
2023-05-25T07:25:51.110Z,752.00
2023-05-25T07:26:50.489Z,750.00
2023-05-25T07:27:50.487Z,747.00
2023-05-25T07:28:50.425Z,749.00
2023-05-25T07:29:50.380Z,751.00
2023-05-25T07:30:50.361Z,816.00
2023-05-25T07:31:50.660Z,802.00
2023-05-25T07:32:50.451Z,789.00
2023-05-25T07:33:50.655Z,773.00
2023-05-25T07:34:50.324Z,766.00
2023-05-25T07:35:50.333Z,769.00
2023-05-25T07:36:50.376Z,755.00
2023-05-25T07:37:50.696Z,717.00
2023-05-25T07:38:50.360Z,720.00
2023-05-25T07:39:50.363Z,735.00
2023-05-25T07:40:50.632Z,736.00
2023-05-25T07:41:50.399Z,730.00
2023-05-25T07:42:50.820Z,722.00
2023-05-25T07:43:50.386Z,723.00
2023-05-25T07:44:50.397Z,717.00
2023-05-25T07:45:50.405Z,719.00
2023-05-25T07:46:50.439Z,724.00
2023-05-25T07:47:50.512Z,726.00
2023-05-25T07:48:50.424Z,734.00
2023-05-25T07:49:50.370Z,742.00
2023-05-25T07:50:50.393Z,743.00
2023-05-25T07:51:50.518Z,745.00
2023-05-25T07:52:50.799Z,757.00
2023-05-25T07:53:50.394Z,769.00
2023-05-25T07:54:50.453Z,768.00
2023-05-25T07:55:50.421Z,772.00
2023-05-25T07:56:50.485Z,782.00
2023-05-25T07:57:50.416Z,787.00
2023-05-25T07:58:50.396Z,790.00
2023-05-25T07:59:50.427Z,791.00
2023-05-25T08:00:50.473Z,793.00
2023-05-25T08:01:50.393Z,790.00
2023-05-25T08:02:50.493Z,790.00
2023-05-25T08:03:50.642Z,793.00
2023-05-25T08:04:51.181Z,794.00
2023-05-25T08:05:50.380Z,792.00
2023-05-25T08:06:50.338Z,785.00
2023-05-25T08:07:50.396Z,786.00
2023-05-25T08:08:50.353Z,761.00
2023-05-25T08:09:50.365Z,776.00
2023-05-25T08:10:50.393Z,790.00
2023-05-25T08:11:50.341Z,793.00
2023-05-25T08:12:52.254Z,794.00
2023-05-25T08:13:50.356Z,790.00
2023-05-25T08:14:50.319Z,770.00
2023-05-25T08:15:50.328Z,735.00
2023-05-25T08:16:50.383Z,755.00
2023-05-25T08:17:50.414Z,766.00
2023-05-25T08:18:50.483Z,773.00
2023-05-25T08:19:50.370Z,774.00
2023-05-25T08:20:50.393Z,772.00
2023-05-25T08:21:50.390Z,773.00
2023-05-25T08:22:50.412Z,765.00
2023-05-25T08:23:50.462Z,778.00
2023-05-25T08:24:50.392Z,779.00
2023-05-25T08:25:50.393Z,774.00
2023-05-25T08:26:54.774Z,774.00
2023-05-25T08:27:50.434Z,776.00
2023-05-25T08:28:50.447Z,780.00
2023-05-25T08:29:50.625Z,712.00
2023-05-25T08:30:50.432Z,735.00
2023-05-25T08:31:51.266Z,667.00
2023-05-25T08:32:50.455Z,665.00
2023-05-25T08:33:50.351Z,673.00
2023-05-25T08:34:50.377Z,673.00
2023-05-25T08:35:50.330Z,670.00
2023-05-25T08:36:50.454Z,666.00
2023-05-25T08:37:50.341Z,650.00
2023-05-25T08:38:50.303Z,640.00
2023-05-25T08:39:50.357Z,626.00
2023-05-25T08:40:50.333Z,621.00
2023-05-25T08:41:50.315Z,617.00
2023-05-25T08:42:50.317Z,610.00
2023-05-25T08:43:50.282Z,603.00
2023-05-25T08:44:50.325Z,643.00
2023-05-25T08:45:50.446Z,683.00
2023-05-25T08:46:50.486Z,683.00
2023-05-25T08:47:50.393Z,682.00
2023-05-25T08:48:50.405Z,681.00
2023-05-25T08:49:50.310Z,688.00
2023-05-25T08:50:50.338Z,700.00
2023-05-25T08:51:50.222Z,711.00
2023-05-25T08:52:50.251Z,724.00
2023-05-25T08:53:50.205Z,734.00
2023-05-25T08:54:50.795Z,740.00
2023-05-25T08:55:50.269Z,750.00
2023-05-25T08:56:50.238Z,757.00
2023-05-25T08:57:50.236Z,760.00
2023-05-25T08:58:50.175Z,769.00
2023-05-25T08:59:50.205Z,773.00
2023-05-25T09:00:50.141Z,781.00
2023-05-25T09:01:50.239Z,810.00
2023-05-25T09:02:50.346Z,820.00
2023-05-25T09:03:50.264Z,826.00
2023-05-25T09:04:50.460Z,831.00
2023-05-25T09:05:50.244Z,836.00
2023-05-25T09:07:01.701Z,841.00
2023-05-25T09:07:51.271Z,849.00
2023-05-25T09:08:50.141Z,857.00
2023-05-25T09:09:50.105Z,861.00
2023-05-25T09:10:50.128Z,870.00
2023-05-25T09:11:50.090Z,880.00
2023-05-25T09:12:50.110Z,896.00
2023-05-25T09:13:50.070Z,914.00
2023-05-25T09:14:50.081Z,928.00
2023-05-25T09:15:50.151Z,932.00
2023-05-25T09:16:50.240Z,933.00
2023-05-25T09:17:50.276Z,943.00
2023-05-25T09:18:50.587Z,951.00
2023-05-25T09:19:50.378Z,960.00
2023-05-25T09:20:50.628Z,968.00
2023-05-25T09:21:53.095Z,968.00
2023-05-25T09:22:51.506Z,967.00
2023-05-25T09:23:50.466Z,975.00
2023-05-25T09:24:50.476Z,984.00
2023-05-25T09:25:50.479Z,984.00
2023-05-25T09:26:50.402Z,982.00
2023-05-25T09:27:50.423Z,984.00
2023-05-25T09:28:50.428Z,994.00
2023-05-25T09:29:50.384Z,994.00
2023-05-25T09:30:50.445Z,997.00
2023-05-25T09:31:50.819Z,1016.00
2023-05-25T09:32:50.489Z,1103.00
2023-05-25T09:33:51.320Z,1084.00
2023-05-25T09:34:50.463Z,1081.00
2023-05-25T09:35:50.478Z,1083.00
2023-05-25T09:36:50.952Z,1083.00
2023-05-25T09:37:50.611Z,1081.00
2023-05-25T09:38:50.596Z,1067.00
2023-05-25T09:39:50.621Z,1058.00
2023-05-25T09:40:50.572Z,978.00
2023-05-25T09:41:50.635Z,983.00
2023-05-25T09:42:50.628Z,969.00
2023-05-25T09:44:50.677Z,756.00
2023-05-25T09:45:50.661Z,864.00
2023-05-25T09:46:50.688Z,862.00
2023-05-25T09:47:50.735Z,857.00
2023-05-25T09:48:50.633Z,863.00
2023-05-25T09:49:50.862Z,867.00
2023-05-25T09:50:50.785Z,875.00
2023-05-25T09:51:50.613Z,879.00
2023-05-25T09:52:50.618Z,875.00
2023-05-25T09:53:50.696Z,871.00
2023-05-25T09:54:50.634Z,867.00
2023-05-25T09:55:53.273Z,867.00
2023-05-25T09:56:50.590Z,858.00
2023-05-25T09:57:50.663Z,854.00
2023-05-25T09:58:50.567Z,849.00
2023-05-25T09:59:51.281Z,847.00
2023-05-25T10:00:50.530Z,854.00
2023-05-25T10:01:50.612Z,861.00
2023-05-25T10:02:50.608Z,867.00
2023-05-25T10:04:02.885Z,867.00
2023-05-25T10:04:51.851Z,870.00
2023-05-25T10:05:50.546Z,879.00
2023-05-25T10:06:50.555Z,891.00
2023-05-25T10:07:50.533Z,903.00
2023-05-25T10:08:50.516Z,915.00
2023-05-25T10:09:50.510Z,913.00
2023-05-25T10:10:50.622Z,911.00
2023-05-25T10:11:50.503Z,901.00
2023-05-25T10:12:50.494Z,885.00
2023-05-25T10:13:50.490Z,778.00
2023-05-25T10:14:50.439Z,752.00
2023-05-25T10:15:50.449Z,747.00
2023-05-25T10:16:50.450Z,752.00
2023-05-25T10:17:50.600Z,741.00
2023-05-25T10:18:50.593Z,734.00
2023-05-25T10:19:50.552Z,662.00
2023-05-25T10:20:50.650Z,665.00
2023-05-25T10:21:50.621Z,654.00
2023-05-25T10:22:50.734Z,621.00
2023-05-25T10:23:50.741Z,630.00
2023-05-25T10:24:50.902Z,630.00
2023-05-25T10:25:51.020Z,638.00
2023-05-25T10:26:50.895Z,685.00
2023-05-25T10:27:52.233Z,726.00
2023-05-25T10:28:50.878Z,674.00
2023-05-25T10:29:50.878Z,646.00
2023-05-25T10:30:50.864Z,627.00
2023-05-25T10:31:50.913Z,609.00
2023-05-25T10:32:50.942Z,597.00
2023-05-25T10:33:52.536Z,592.00
2023-05-25T10:34:50.843Z,586.00
2023-05-25T10:36:02.313Z,583.00
2023-05-25T10:36:51.814Z,571.00
2023-05-25T10:37:50.829Z,546.00
2023-05-25T10:38:50.830Z,541.00
2023-05-25T10:39:50.804Z,540.00
2023-05-25T10:40:50.799Z,538.00
2023-05-25T10:41:50.812Z,534.00
2023-05-25T10:42:50.850Z,529.00
2023-05-25T10:43:50.775Z,519.00
2023-05-25T10:44:50.780Z,517.00
2023-05-25T10:45:50.818Z,520.00
2023-05-25T10:46:50.942Z,522.00
2023-05-25T10:47:50.802Z,518.00
2023-05-25T10:48:50.785Z,517.00
2023-05-25T10:49:50.816Z,517.00
2023-05-25T10:50:50.757Z,520.00
2023-05-25T10:51:50.750Z,522.00
2023-05-25T10:52:50.720Z,519.00
2023-05-25T10:53:50.704Z,519.00
2023-05-25T10:54:50.704Z,513.00
2023-05-25T10:55:50.671Z,511.00
2023-05-25T10:56:50.691Z,514.00
2023-05-25T10:57:50.661Z,510.00
2023-05-25T10:58:50.649Z,509.00
2023-05-25T10:59:50.633Z,507.00
2023-05-25T11:00:50.722Z,507.00
2023-05-25T11:01:50.840Z,504.00
2023-05-25T11:02:50.732Z,506.00
2023-05-25T11:03:50.660Z,507.00
2023-05-25T11:04:50.798Z,507.00
2023-05-25T11:05:50.685Z,507.00
2023-05-25T11:06:50.615Z,506.00
2023-05-25T11:07:50.656Z,506.00
2023-05-25T11:08:51.326Z,505.00
2023-05-25T11:09:50.672Z,491.00
2023-05-25T11:10:50.801Z,488.00
2023-05-25T11:11:50.615Z,487.00
2023-05-25T11:12:50.617Z,489.00
2023-05-25T11:13:50.640Z,489.00
2023-05-25T11:14:50.712Z,490.00
2023-05-25T11:15:50.656Z,492.00
2023-05-25T11:16:50.687Z,497.00
2023-05-25T11:17:50.696Z,513.00
2023-05-25T11:18:50.658Z,626.00
2023-05-25T11:19:51.970Z,663.00
2023-05-25T11:20:50.760Z,655.00
2023-05-25T11:21:50.725Z,651.00
2023-05-25T11:22:52.372Z,652.00
2023-05-25T11:23:50.712Z,589.00
2023-05-25T11:24:50.666Z,582.00
2023-05-25T11:25:50.707Z,575.00
2023-05-25T11:26:50.646Z,572.00
2023-05-25T11:27:50.710Z,570.00
2023-05-25T11:28:50.664Z,561.00
2023-05-25T11:29:50.652Z,551.00
2023-05-25T11:30:50.648Z,535.00
2023-05-25T11:31:50.683Z,508.00
2023-05-25T11:32:50.855Z,498.00
2023-05-25T11:33:50.630Z,496.00
2023-05-25T11:34:50.682Z,490.00
2023-05-25T11:35:50.676Z,484.00
2023-05-25T11:36:50.728Z,475.00
2023-05-25T11:37:50.696Z,468.00
2023-05-25T11:39:03.059Z,464.00
2023-05-25T11:39:51.729Z,460.00
2023-05-25T11:40:50.972Z,456.00
2023-05-25T11:41:50.705Z,454.00
2023-05-25T11:42:50.699Z,448.00
2023-05-25T11:43:50.706Z,453.00
2023-05-25T11:44:50.731Z,466.00
2023-05-25T11:45:50.784Z,465.00
2023-05-25T11:46:50.932Z,465.00
2023-05-25T11:47:50.670Z,459.00
2023-05-25T11:48:50.625Z,458.00
2023-05-25T11:49:50.667Z,459.00
2023-05-25T11:50:50.649Z,460.00
2023-05-25T11:51:50.670Z,458.00
2023-05-25T11:52:50.807Z,460.00
2023-05-25T11:53:50.748Z,462.00
2023-05-25T11:54:50.623Z,464.00
2023-05-25T11:55:53.815Z,467.00
2023-05-25T11:56:51.610Z,472.00
2023-05-25T11:57:50.588Z,471.00
2023-05-25T11:58:50.539Z,472.00
2023-05-25T11:59:50.574Z,471.00
2023-05-25T12:00:50.532Z,470.00
2023-05-25T12:01:50.608Z,470.00
2023-05-25T12:02:50.656Z,474.00
2023-05-25T12:03:50.646Z,480.00
2023-05-25T12:04:50.610Z,484.00
2023-05-25T12:05:50.544Z,485.00
2023-05-25T12:06:50.549Z,484.00
2023-05-25T12:07:50.525Z,482.00
2023-05-25T12:08:50.485Z,478.00
2023-05-25T12:09:50.499Z,477.00
2023-05-25T12:10:50.553Z,476.00
2023-05-25T12:11:50.472Z,477.00
2023-05-25T12:12:51.227Z,478.00
2023-05-25T12:13:50.444Z,479.00
2023-05-25T12:14:50.522Z,475.00
2023-05-25T12:15:50.439Z,472.00
2023-05-25T12:16:50.509Z,470.00
2023-05-25T12:17:50.459Z,469.00
2023-05-25T12:18:50.477Z,469.00
2023-05-25T12:19:50.463Z,475.00
2023-05-25T12:20:50.443Z,477.00
2023-05-25T12:21:50.399Z,476.00
2023-05-25T12:22:50.401Z,475.00
2023-05-25T12:23:50.428Z,476.00
2023-05-25T12:24:50.428Z,474.00
2023-05-25T12:25:51.504Z,472.00
2023-05-25T12:26:50.595Z,469.00
2023-05-25T12:27:50.616Z,465.00
2023-05-25T12:28:50.610Z,459.00
2023-05-25T12:29:50.595Z,457.00